createdAt,value
2023-04-19T00:02:13.304Z,8.55
2023-04-19T00:06:15.108Z,10.63
2023-04-19T00:10:16.799Z,6.32
2023-04-19T00:14:18.397Z,8.38
2023-04-19T00:18:20.090Z,5.80
2023-04-19T00:22:21.865Z,5.53
2023-04-19T00:26:23.331Z,3.50
2023-04-19T00:30:24.763Z,6.22
2023-04-19T00:34:26.223Z,4.25
2023-04-19T00:38:27.643Z,5.57
2023-04-19T00:42:29.099Z,5.93
2023-04-19T00:46:30.865Z,5.15
2023-04-19T00:50:32.349Z,7.60
2023-04-19T00:54:34.135Z,4.10
2023-04-19T00:58:37.691Z,7.00
2023-04-19T01:02:39.225Z,3.55
2023-04-19T01:06:41.908Z,5.75
2023-04-19T01:10:43.319Z,4.28
2023-04-19T01:14:44.725Z,4.22
2023-04-19T01:18:46.172Z,3.45
2023-04-19T01:22:47.614Z,4.25
2023-04-19T01:26:49.026Z,5.15
2023-04-19T01:30:54.542Z,7.90
2023-04-19T01:34:56.043Z,3.30
2023-04-19T01:38:57.505Z,5.53
2023-04-19T01:42:58.976Z,2.80
2023-04-19T01:47:00.581Z,6.47
2023-04-19T01:51:02.122Z,6.97
2023-04-19T01:55:05.315Z,3.40
2023-04-19T01:59:06.725Z,9.00
2023-04-19T02:03:08.294Z,5.30
2023-04-19T02:07:09.846Z,4.40
2023-04-19T02:11:14.479Z,6.43
2023-04-19T02:15:15.902Z,4.82
2023-04-19T02:19:17.970Z,3.80
2023-04-19T02:23:19.380Z,4.28
2023-04-19T02:27:20.839Z,5.50
2023-04-19T02:31:22.681Z,6.20
2023-04-19T02:35:24.152Z,5.18
2023-04-19T02:39:25.667Z,4.38
2023-04-19T02:43:27.216Z,6.53
2023-04-19T02:47:28.723Z,4.13
2023-04-19T02:51:30.698Z,9.18
2023-04-19T02:55:32.361Z,4.72
2023-04-19T02:59:33.825Z,4.20
2023-04-19T03:03:35.459Z,4.28
2023-04-19T03:07:37.116Z,3.40
2023-04-19T03:11:38.670Z,4.50
2023-04-19T03:15:40.237Z,3.85
2023-04-19T03:19:41.730Z,7.75
2023-04-19T03:23:43.156Z,4.28
2023-04-19T03:27:45.541Z,5.72
2023-04-19T03:31:47.818Z,4.07
2023-04-19T03:35:49.237Z,7.07
2023-04-19T03:39:50.643Z,4.90
2023-04-19T03:43:52.447Z,6.53
2023-04-19T03:47:53.872Z,3.22
2023-04-19T03:51:55.367Z,7.90
2023-04-19T03:55:56.799Z,3.67
2023-04-19T03:59:58.398Z,5.28
2023-04-19T04:04:02.310Z,3.63
2023-04-19T04:08:05.611Z,9.82
2023-04-19T04:12:07.162Z,8.13
2023-04-19T04:16:08.789Z,5.20
2023-04-19T04:20:11.835Z,5.03
2023-04-19T04:24:13.853Z,4.30
2023-04-19T04:28:15.825Z,5.43
2023-04-19T04:32:18.078Z,4.45
2023-04-19T04:36:20.491Z,5.47
2023-04-19T04:40:22.108Z,11.75
2023-04-19T04:44:24.742Z,2.65
2023-04-19T04:48:26.487Z,5.45
2023-04-19T04:52:28.378Z,6.70
2023-04-19T04:56:30.896Z,3.47
2023-04-19T05:00:32.753Z,2.50
2023-04-19T05:04:34.260Z,12.07
2023-04-19T05:08:35.729Z,3.50
2023-04-19T05:12:38.030Z,4.80
2023-04-19T05:16:39.917Z,4.85
2023-04-19T05:20:41.560Z,5.10
2023-04-19T05:24:43.093Z,4.93
2023-04-19T05:28:44.962Z,4.03
2023-04-19T05:32:46.906Z,7.07
2023-04-19T05:36:48.364Z,4.35
2023-04-19T05:40:49.768Z,3.60
2023-04-19T05:44:51.253Z,5.53
2023-04-19T05:48:53.016Z,5.20
2023-04-19T05:52:54.488Z,13.00
2023-04-19T05:56:56.179Z,5.57
2023-04-19T06:00:57.601Z,4.53
2023-04-19T06:05:02.423Z,6.82
2023-04-19T06:09:07.237Z,2.35
2023-04-19T06:13:08.710Z,2.63
2023-04-19T06:17:10.192Z,5.38
2023-04-19T06:21:11.688Z,9.18
2023-04-19T06:25:13.347Z,4.32
2023-04-19T06:29:14.777Z,5.65
2023-04-19T06:33:16.441Z,5.25
2023-04-19T06:37:17.911Z,6.78
2023-04-19T06:41:19.406Z,4.03
2023-04-19T06:45:21.079Z,4.88
2023-04-19T06:49:22.709Z,3.85
2023-04-19T06:53:24.453Z,4.50
2023-04-19T06:57:26.049Z,4.28
2023-04-19T07:01:27.527Z,7.07
2023-04-19T07:05:30.639Z,4.35
2023-04-19T07:09:32.209Z,4.50
2023-04-19T07:13:33.626Z,4.28
2023-04-19T07:17:36.631Z,4.68
2023-04-19T07:21:39.456Z,6.82
2023-04-19T07:25:40.930Z,6.65
2023-04-19T07:29:42.340Z,4.15
2023-04-19T07:33:44.424Z,5.20
2023-04-19T07:37:45.910Z,5.80
2023-04-19T07:41:47.447Z,7.82
2023-04-19T07:45:48.942Z,5.55
2023-04-19T07:49:53.624Z,4.72
2023-04-19T07:53:55.134Z,9.75
2023-04-19T07:57:56.594Z,5.10
2023-04-19T08:01:58.137Z,8.82
2023-04-19T08:06:07.134Z,7.13
2023-04-19T08:10:09.615Z,3.47
2023-04-19T08:14:27.110Z,3.30
2023-04-19T08:18:36.155Z,4.65
2023-04-19T08:22:39.081Z,6.38
2023-04-19T08:26:40.810Z,5.65
2023-04-19T08:30:42.332Z,5.72
2023-04-19T08:34:43.832Z,4.97
2023-04-19T08:38:49.171Z,4.18
2023-04-19T08:42:57.065Z,6.88
2023-04-19T08:47:01.452Z,5.30
2023-04-19T08:51:05.765Z,5.93
2023-04-19T08:55:08.748Z,4.45
2023-04-19T08:59:18.014Z,6.03
2023-04-19T09:07:26.499Z,5.18
2023-04-19T09:11:40.902Z,5.30
2023-04-19T09:15:44.568Z,9.65
2023-04-19T09:19:50.315Z,8.43
2023-04-19T09:23:51.926Z,5.10
2023-04-19T09:27:54.863Z,4.05
2023-04-19T09:31:58.812Z,4.22
2023-04-19T09:36:03.237Z,5.53
2023-04-19T09:40:25.034Z,3.95
2023-04-19T09:48:31.086Z,4.47
2023-04-19T09:52:34.800Z,5.38
2023-04-19T09:56:37.077Z,3.58
2023-04-19T10:00:47.783Z,5.30
2023-04-19T10:09:02.515Z,5.90
2023-04-19T10:13:19.317Z,6.70
2023-04-19T10:17:23.094Z,5.03
2023-04-19T10:21:27.353Z,7.93
2023-04-19T10:25:30.694Z,7.57
2023-04-19T10:29:57.762Z,4.15
2023-04-19T10:33:59.322Z,6.32
2023-04-19T10:38:12.844Z,5.35
2023-04-19T10:42:14.313Z,6.57
2023-04-19T10:46:16.798Z,11.63
2023-04-19T10:50:18.602Z,8.52
2023-04-19T10:54:31.192Z,6.80
2023-04-19T10:59:01.882Z,3.85
2023-04-19T11:03:44.812Z,7.07
2023-04-19T11:07:46.352Z,7.20
2023-04-19T11:11:47.821Z,6.38
2023-04-19T11:15:49.325Z,5.25
2023-04-19T11:20:07.148Z,5.22
2023-04-19T11:24:14.549Z,8.45
2023-04-19T11:28:17.512Z,4.88
2023-04-19T11:32:21.475Z,8.95
2023-04-19T11:36:22.960Z,5.05
2023-04-19T11:40:28.300Z,6.90
2023-04-19T11:44:30.775Z,7.50
2023-04-19T11:48:32.745Z,5.13
2023-04-19T11:52:35.481Z,7.70
2023-04-19T11:56:36.961Z,8.48
2023-04-19T12:00:38.583Z,4.32
2023-04-19T12:04:41.093Z,6.50
2023-04-19T12:08:48.222Z,5.65
2023-04-19T12:12:49.619Z,8.68
2023-04-19T12:17:10.800Z,5.55
2023-04-19T12:21:25.309Z,6.18
2023-04-19T12:25:31.276Z,4.75
2023-04-19T12:29:33.885Z,6.03
2023-04-19T12:33:35.404Z,12.90
2023-04-19T12:37:37.044Z,8.85
2023-04-19T12:41:38.646Z,6.60
2023-04-19T12:45:40.126Z,7.82
2023-04-19T12:49:41.624Z,5.43
2023-04-19T12:53:48.033Z,4.72
2023-04-19T12:57:49.587Z,5.38
2023-04-19T13:01:51.106Z,7.85
2023-04-19T13:05:52.522Z,5.60
2023-04-19T13:09:56.532Z,7.38
2023-04-19T13:13:58.398Z,8.23
2023-04-19T13:17:59.843Z,6.55
2023-04-19T13:22:01.347Z,5.10
2023-04-19T13:26:02.801Z,9.75
2023-04-19T13:30:04.680Z,6.60
2023-04-19T13:34:06.307Z,3.55
2023-04-19T13:38:07.778Z,5.65
2023-04-19T13:42:09.720Z,19.95
2023-04-19T13:46:11.473Z,5.47
2023-04-19T13:50:13.648Z,4.82
2023-04-19T13:54:17.558Z,6.55
2023-04-19T13:58:19.506Z,7.75
2023-04-19T14:02:21.255Z,6.18
2023-04-19T14:06:22.912Z,5.65
2023-04-19T14:10:24.433Z,10.30
2023-04-19T14:14:26.457Z,8.90
2023-04-19T14:18:27.943Z,4.80
2023-04-19T14:22:29.373Z,4.65
2023-04-19T14:26:30.835Z,5.22
2023-04-19T14:30:32.335Z,4.55
2023-04-19T14:34:33.864Z,5.70
2023-04-19T14:38:35.488Z,4.70
2023-04-19T14:42:36.928Z,3.78
2023-04-19T14:46:38.387Z,3.80
2023-04-19T14:50:39.785Z,5.95
2023-04-19T14:54:41.838Z,4.68
2023-04-19T14:58:43.296Z,7.38
2023-04-19T18:25:56.232Z,15.60
2023-04-19T18:29:57.679Z,12.05
2023-04-19T18:33:59.841Z,8.52
2023-04-19T18:38:01.623Z,19.42
2023-04-19T18:42:03.229Z,10.38
2023-04-19T18:46:04.768Z,11.38
2023-04-19T18:50:08.406Z,12.20
2023-04-19T18:54:09.884Z,12.23
2023-04-19T18:58:11.924Z,14.93
2023-04-19T19:02:13.431Z,10.90
2023-04-19T19:06:15.097Z,19.05
2023-04-19T19:10:20.904Z,14.48
2023-04-19T19:14:24.239Z,17.38
2023-04-19T19:18:27.682Z,16.55
2023-04-19T19:22:29.301Z,11.95
2023-04-19T19:26:31.363Z,11.35
2023-04-19T19:30:33.831Z,10.60
2023-04-19T19:34:47.531Z,15.15
2023-04-19T19:42:57.394Z,10.85
2023-04-19T19:46:58.970Z,13.02
2023-04-19T19:51:31.327Z,16.52
2023-04-19T19:55:23.604Z,12.30
2023-04-19T19:59:30.280Z,16.17
2023-04-19T20:03:37.359Z,13.73
2023-04-19T20:08:00.530Z,15.10
2023-04-19T20:12:02.570Z,17.52
2023-04-19T20:16:04.172Z,14.32
2023-04-19T20:20:08.820Z,17.63
2023-04-19T20:24:10.314Z,17.23
2023-04-19T20:28:12.488Z,14.95
2023-04-19T20:32:14.086Z,16.08
2023-04-19T20:36:16.331Z,17.20
2023-04-19T20:40:18.486Z,16.95
2023-04-19T20:44:22.971Z,17.95
2023-04-19T20:48:24.490Z,13.60
2023-04-19T20:52:26.100Z,12.73
2023-04-19T20:56:27.664Z,14.63
2023-04-19T21:00:29.140Z,16.17
2023-04-19T21:04:30.793Z,17.08
2023-04-19T21:08:32.285Z,17.83
2023-04-19T21:12:34.657Z,13.70
2023-04-19T21:16:36.208Z,12.40
2023-04-19T21:20:37.939Z,15.02
2023-04-19T21:24:42.186Z,13.48
2023-04-19T21:28:43.778Z,11.90
2023-04-19T21:32:45.388Z,14.98
2023-04-19T21:36:46.878Z,14.82
2023-04-19T21:40:49.413Z,12.65
2023-04-19T21:44:50.891Z,14.65
2023-04-19T21:48:54.377Z,12.88
2023-04-19T21:52:57.332Z,13.82
2023-04-19T21:56:59.366Z,13.85
2023-04-19T22:01:01.138Z,12.52
2023-04-19T22:05:04.869Z,16.42
2023-04-19T22:09:06.917Z,14.02
2023-04-19T22:13:08.660Z,14.35
2023-04-19T22:17:16.397Z,15.35
2023-04-19T22:21:17.822Z,18.98
2023-04-19T22:25:19.350Z,21.05
2023-04-19T22:29:20.992Z,14.05
2023-04-19T22:33:22.454Z,16.67
2023-04-19T22:37:24.172Z,19.85
2023-04-19T22:41:25.688Z,19.58
2023-04-19T22:45:27.190Z,17.77
2023-04-19T22:49:29.693Z,20.17
2023-04-19T22:53:31.168Z,21.48
2023-04-19T22:57:32.663Z,18.83
2023-04-19T23:01:34.906Z,17.38
2023-04-19T23:05:36.389Z,18.83
2023-04-19T23:09:39.186Z,17.60
2023-04-19T23:13:43.957Z,18.25
2023-04-19T23:17:45.403Z,17.60
2023-04-19T23:21:46.903Z,17.88
2023-04-19T23:25:48.687Z,21.15
2023-04-19T23:29:50.186Z,17.63
2023-04-19T23:33:51.618Z,20.08
2023-04-19T23:37:53.129Z,16.63
2023-04-19T23:41:54.613Z,18.38
2023-04-19T23:45:57.222Z,19.08
2023-04-19T23:49:58.686Z,19.77
2023-04-19T23:54:00.259Z,16.73
2023-04-19T23:58:01.656Z,18.25
